Terminal Aerodrome Forecast
Issued by NWS King Salmon, AK

Home | Current Version | Previous Version | Text Only | Print | Product List | Glossary On
Versions: 1 2 3 4 5 6 7 8 9 10 11 12 13 14 15 16 17 18 19 20 21 22 23 24 25 26 27 28 29 30 31 32 33 34 35 36 37 38 39
000
FTAK31 PANC 271414 AAA
TAFAKN
TAF AMD
PAKN 271414Z 2714/2812 24011KT 6SM BR SCT002 OVC005
      TEMPO 2714/2717 2SM BR BKN002
     FM271700 27008KT P6SM VCSH SCT003 OVC012
     FM271900 29011KT P6SM SCT012 OVC040
     FM272200 30014G25KT P6SM SCT040
     FM280600 29009G17KT P6SM FEW250=

USA.gov is the U.S. government's official web portal to all federal, state and local government web resources and services.